sensor_id;sensor_type;location;lat;lon;timestamp;pressure;altitude;pressure_sealevel;temperature;humidity
69306;BME280;56427;51.580;4.656;2023-07-30T00:01:57;100945.69;;;15.48;100.00
69306;BME280;56427;51.580;4.656;2023-07-30T00:04:22;100944.56;;;15.50;100.00
69306;BME280;56427;51.580;4.656;2023-07-30T00:06:49;100944.72;;;15.49;100.00
69306;BME280;56427;51.580;4.656;2023-07-30T00:09:15;100947.63;;;15.37;100.00
69306;BME280;56427;51.580;4.656;2023-07-30T00:11:41;100947.47;;;15.39;100.00
69306;BME280;56427;51.580;4.656;2023-07-30T00:14:07;100952.34;;;15.34;100.00
69306;BME280;56427;51.580;4.656;2023-07-30T00:16:32;100942.53;;;15.36;100.00
69306;BME280;56427;51.580;4.656;2023-07-30T00:19:00;100946.63;;;15.30;100.00
69306;BME280;56427;51.580;4.656;2023-07-30T00:21:25;100941.53;;;15.28;100.00
69306;BME280;56427;51.580;4.656;2023-07-30T00:23:51;100944.47;;;15.25;100.00
69306;BME280;56427;51.580;4.656;2023-07-30T00:26:17;100949.66;;;15.17;100.00
69306;BME280;56427;51.580;4.656;2023-07-30T00:28:43;100940.84;;;15.18;100.00
69306;BME280;56427;51.580;4.656;2023-07-30T00:31:09;100936.38;;;15.11;100.00
69306;BME280;56427;51.580;4.656;2023-07-30T00:33:34;100944.25;;;15.19;100.00
69306;BME280;56427;51.580;4.656;2023-07-30T00:36:00;100949.28;;;15.12;100.00
69306;BME280;56427;51.580;4.656;2023-07-30T00:38:25;100954.53;;;15.12;100.00
69306;BME280;56427;51.580;4.656;2023-07-30T00:40:51;100952.88;;;15.11;100.00
69306;BME280;56427;51.580;4.656;2023-07-30T00:43:16;100956.44;;;15.02;100.00
69306;BME280;56427;51.580;4.656;2023-07-30T00:45:44;100960.66;;;15.03;100.00
69306;BME280;56427;51.580;4.656;2023-07-30T00:48:10;100962.47;;;15.02;100.00
69306;BME280;56427;51.580;4.656;2023-07-30T00:50:37;100957.84;;;14.96;100.00
69306;BME280;56427;51.580;4.656;2023-07-30T00:53:03;100970.59;;;14.99;100.00
69306;BME280;56427;51.580;4.656;2023-07-30T00:55:31;100963.56;;;15.00;100.00
69306;BME280;56427;51.580;4.656;2023-07-30T00:57:57;100971.13;;;15.03;100.00
69306;BME280;56427;51.580;4.656;2023-07-30T01:00:23;100968.03;;;15.07;100.00
69306;BME280;56427;51.580;4.656;2023-07-30T01:02:52;100973.78;;;15.11;100.00
69306;BME280;56427;51.580;4.656;2023-07-30T01:05:20;100974.97;;;15.17;100.00
69306;BME280;56427;51.580;4.656;2023-07-30T01:07:46;100976.91;;;15.15;100.00
69306;BME280;56427;51.580;4.656;2023-07-30T01:10:12;100976.41;;;15.11;100.00
69306;BME280;56427;51.580;4.656;2023-07-30T01:12:37;100980.06;;;15.18;100.00
69306;BME280;56427;51.580;4.656;2023-07-30T01:15:04;100982.81;;;15.17;100.00
69306;BME280;56427;51.580;4.656;2023-07-30T01:17:30;100984.28;;;15.19;100.00
69306;BME280;56427;51.580;4.656;2023-07-30T01:19:56;100983.03;;;15.23;100.00
69306;BME280;56427;51.580;4.656;2023-07-30T01:22:22;100991.06;;;15.30;100.00
69306;BME280;56427;51.580;4.656;2023-07-30T01:24:48;100991.56;;;15.34;100.00
69306;BME280;56427;51.580;4.656;2023-07-30T01:27:18;100992.03;;;15.29;100.00
69306;BME280;56427;51.580;4.656;2023-07-30T01:32:26;100996.34;;;15.38;100.00
69306;BME280;56427;51.580;4.656;2023-07-30T01:34:56;100991.88;;;15.31;100.00
69306;BME280;56427;51.580;4.656;2023-07-30T01:37:23;100998.50;;;15.43;100.00
69306;BME280;56427;51.580;4.656;2023-07-30T01:39:50;100994.50;;;15.31;100.00
69306;BME280;56427;51.580;4.656;2023-07-30T01:42:17;100993.84;;;15.28;100.00
69306;BME280;56427;51.580;4.656;2023-07-30T01:44:42;100998.50;;;15.43;100.00
69306;BME280;56427;51.580;4.656;2023-07-30T01:47:09;100992.22;;;15.36;100.00
69306;BME280;56427;51.580;4.656;2023-07-30T01:49:35;100990.53;;;15.53;100.00
69306;BME280;56427;51.580;4.656;2023-07-30T01:52:00;100997.06;;;15.57;100.00
69306;BME280;56427;51.580;4.656;2023-07-30T01:54:27;100993.97;;;15.53;100.00
69306;BME280;56427;51.580;4.656;2023-07-30T01:56:53;100991.16;;;15.46;100.00
69306;BME280;56427;51.580;4.656;2023-07-30T01:59:19;100987.19;;;15.42;100.00
69306;BME280;56427;51.580;4.656;2023-07-30T02:01:44;100991.75;;;15.40;100.00
69306;BME280;56427;51.580;4.656;2023-07-30T02:04:11;100981.91;;;15.34;100.00
69306;BME280;56427;51.580;4.656;2023-07-30T02:06:37;100991.56;;;15.34;100.00
69306;BME280;56427;51.580;4.656;2023-07-30T02:09:02;100990.91;;;15.32;100.00
69306;BME280;56427;51.580;4.656;2023-07-30T02:11:28;100991.22;;;15.28;100.00
69306;BME280;56427;51.580;4.656;2023-07-30T02:13:54;100990.91;;;15.32;100.00
69306;BME280;56427;51.580;4.656;2023-07-30T02:16:21;100991.53;;;15.25;100.00
69306;BME280;56427;51.580;4.656;2023-07-30T02:18:47;100981.56;;;15.29;100.00
69306;BME280;56427;51.580;4.656;2023-07-30T02:21:14;100978.81;;;15.31;100.00
69306;BME280;56427;51.580;4.656;2023-07-30T02:23:39;100985.06;;;15.38;100.00
69306;BME280;56427;51.580;4.656;2023-07-30T02:26:08;100989.09;;;15.32;100.00
69306;BME280;56427;51.580;4.656;2023-07-30T02:28:33;100988.50;;;15.38;100.00
69306;BME280;56427;51.580;4.656;2023-07-30T02:31:00;100980.66;;;15.38;100.00
69306;BME280;56427;51.580;4.656;2023-07-30T02:33:26;100988.00;;;15.35;100.00
69306;BME280;56427;51.580;4.656;2023-07-30T02:35:52;100977.84;;;15.32;100.00
69306;BME280;56427;51.580;4.656;2023-07-30T02:38:18;100972.22;;;15.18;100.00
69306;BME280;56427;51.580;4.656;2023-07-30T02:40:46;100981.00;;;15.17;100.00
69306;BME280;56427;51.580;4.656;2023-07-30T02:43:13;100977.59;;;15.17;100.00
69306;BME280;56427;51.580;4.656;2023-07-30T02:45:38;100981.16;;;15.16;100.00
69306;BME280;56427;51.580;4.656;2023-07-30T02:48:04;100979.06;;;15.19;100.00
69306;BME280;56427;51.580;4.656;2023-07-30T02:50:29;100978.56;;;15.16;100.00
69306;BME280;56427;51.580;4.656;2023-07-30T02:52:55;100981.94;;;15.08;100.00
69306;BME280;56427;51.580;4.656;2023-07-30T02:55:20;100979.78;;;15.03;100.00
69306;BME280;56427;51.580;4.656;2023-07-30T02:57:46;100984.34;;;15.01;100.00
69306;BME280;56427;51.580;4.656;2023-07-30T03:00:12;100987.16;;;15.08;100.00
69306;BME280;56427;51.580;4.656;2023-07-30T03:02:37;100981.63;;;15.11;100.00
69306;BME280;56427;51.580;4.656;2023-07-30T03:05:04;100976.41;;;15.11;100.00
69306;BME280;56427;51.580;4.656;2023-07-30T03:07:30;100971.13;;;15.03;100.00
69306;BME280;56427;51.580;4.656;2023-07-30T03:09:55;100967.38;;;15.05;100.00
69306;BME280;56427;51.580;4.656;2023-07-30T03:12:21;100975.22;;;15.05;100.00
69306;BME280;56427;51.580;4.656;2023-07-30T03:14:47;100973.94;;;15.09;100.00
69306;BME280;56427;51.580;4.656;2023-07-30T03:17:12;100983.06;;;15.05;100.00
69306;BME280;56427;51.580;4.656;2023-07-30T03:19:37;100983.81;;;14.98;100.00
69306;BME280;56427;51.580;4.656;2023-07-30T03:22:04;100986.44;;;14.98;100.00
69306;BME280;56427;51.580;4.656;2023-07-30T03:24:33;100989.97;;;14.88;100.00
69306;BME280;56427;51.580;4.656;2023-07-30T03:26:59;100986.28;;;14.99;100.00
69306;BME280;56427;51.580;4.656;2023-07-30T03:29:24;100992.09;;;15.11;100.00
69306;BME280;56427;51.580;4.656;2023-07-30T03:31:51;100991.06;;;15.04;100.00
69306;BME280;56427;51.580;4.656;2023-07-30T03:34:16;100991.22;;;15.02;100.00
69306;BME280;56427;51.580;4.656;2023-07-30T03:36:44;100986.00;;;15.02;100.00
69306;BME280;56427;51.580;4.656;2023-07-30T03:39:10;100994.56;;;14.95;100.00
69306;BME280;56427;51.580;4.656;2023-07-30T03:41:36;100990.50;;;14.92;100.00
69306;BME280;56427;51.580;4.656;2023-07-30T03:44:02;100994.44;;;14.96;100.00
69306;BME280;56427;51.580;4.656;2023-07-30T03:46:27;100996.28;;;15.04;100.00
69306;BME280;56427;51.580;4.656;2023-07-30T03:48:53;101000.66;;;14.95;100.00
69306;BME280;56427;51.580;4.656;2023-07-30T03:51:18;100992.97;;;14.94;100.00
69306;BME280;56427;51.580;4.656;2023-07-30T03:53:44;101002.41;;;14.95;100.00
69306;BME280;56427;51.580;4.656;2023-07-30T03:56:10;101001.91;;;14.91;100.00
69306;BME280;56427;51.580;4.656;2023-07-30T03:58:35;101005.81;;;14.87;100.00
69306;BME280;56427;51.580;4.656;2023-07-30T04:01:01;101007.78;;;14.93;100.00
69306;BME280;56427;51.580;4.656;2023-07-30T04:03:27;101009.16;;;14.97;100.00
69306;BME280;56427;51.580;4.656;2023-07-30T04:05:53;101012.56;;;14.98;100.00
69306;BME280;56427;51.580;4.656;2023-07-30T04:08:20;101011.91;;;14.96;100.00
69306;BME280;56427;51.580;4.656;2023-07-30T04:10:46;101011.63;;;14.99;100.00
69306;BME280;56427;51.580;4.656;2023-07-30T04:13:13;101008.50;;;14.95;100.00
69306;BME280;56427;51.580;4.656;2023-07-30T04:15:39;101010.47;;;15.01;100.00
69306;BME280;56427;51.580;4.656;2023-07-30T04:18:06;101000.50;;;14.97;100.00
69306;BME280;56427;51.580;4.656;2023-07-30T04:20:32;101002.28;;;14.96;100.00
69306;BME280;56427;51.580;4.656;2023-07-30T04:22:58;101002.13;;;14.98;100.00
69306;BME280;56427;51.580;4.656;2023-07-30T04:25:23;101015.63;;;14.93;100.00
69306;BME280;56427;51.580;4.656;2023-07-30T04:27:49;101018.78;;;14.97;100.00
69306;BME280;56427;51.580;4.656;2023-07-30T04:30:17;101028.25;;;14.98;100.00
69306;BME280;56427;51.580;4.656;2023-07-30T04:32:43;101018.16;;;15.03;100.00
69306;BME280;56427;51.580;4.656;2023-07-30T04:35:08;101023.31;;;14.95;100.00
69306;BME280;56427;51.580;4.656;2023-07-30T04:37:34;101025.50;;;14.99;100.00
69306;BME280;56427;51.580;4.656;2023-07-30T04:39:59;101024.69;;;14.99;100.00
69306;BME280;56427;51.580;4.656;2023-07-30T04:42:25;101025.50;;;14.99;100.00
69306;BME280;56427;51.580;4.656;2023-07-30T04:44:52;101030.56;;;15.01;100.00
69306;BME280;56427;51.580;4.656;2023-07-30T04:47:17;101029.50;;;15.12;100.00
69306;BME280;56427;51.580;4.656;2023-07-30T04:49:43;101035.03;;;15.08;100.00
69306;BME280;56427;51.580;4.656;2023-07-30T04:52:10;101036.31;;;15.04;100.00
69306;BME280;56427;51.580;4.656;2023-07-30T04:54:35;101029.31;;;15.05;100.00
69306;BME280;56427;51.580;4.656;2023-07-30T04:57:02;101030.19;;;15.14;100.00
69306;BME280;56427;51.580;4.656;2023-07-30T04:59:28;101031.59;;;15.08;100.00
69306;BME280;56427;51.580;4.656;2023-07-30T05:01:54;101040.78;;;15.12;100.00
69306;BME280;56427;51.580;4.656;2023-07-30T05:04:20;101035.75;;;15.19;100.00
69306;BME280;56427;51.580;4.656;2023-07-30T05:06:46;101038.06;;;15.22;100.00
69306;BME280;56427;51.580;4.656;2023-07-30T05:09:12;101033.81;;;15.21;100.00
69306;BME280;56427;51.580;4.656;2023-07-30T05:11:38;101035.00;;;15.26;100.00
69306;BME280;56427;51.580;4.656;2023-07-30T05:14:04;101038.75;;;15.24;100.00
69306;BME280;56427;51.580;4.656;2023-07-30T05:16:30;101033.81;;;15.21;100.00
69306;BME280;56427;51.580;4.656;2023-07-30T05:18:56;101033.81;;;15.21;100.00
69306;BME280;56427;51.580;4.656;2023-07-30T05:21:21;101041.75;;;15.37;100.00
69306;BME280;56427;51.580;4.656;2023-07-30T05:23:46;101037.69;;;15.35;100.00
69306;BME280;56427;51.580;4.656;2023-07-30T05:26:12;101045.03;;;15.39;100.00
69306;BME280;56427;51.580;4.656;2023-07-30T05:28:38;101035.56;;;15.38;100.00
69306;BME280;56427;51.580;4.656;2023-07-30T05:31:04;101046.38;;;15.43;100.00
69306;BME280;56427;51.580;4.656;2023-07-30T05:33:29;101046.13;;;15.55;100.00
69306;BME280;56427;51.580;4.656;2023-07-30T05:35:56;101041.66;;;15.47;100.00
69306;BME280;56427;51.580;4.656;2023-07-30T05:38:21;101041.56;;;15.57;100.00
69306;BME280;56427;51.580;4.656;2023-07-30T05:40:48;101033.91;;;15.63;100.00
69306;BME280;56427;51.580;4.656;2023-07-30T05:43:15;101030.06;;;15.50;100.00
69306;BME280;56427;51.580;4.656;2023-07-30T05:45:42;101043.25;;;15.66;100.00
69306;BME280;56427;51.580;4.656;2023-07-30T05:48:08;101039.28;;;15.62;100.00
69306;BME280;56427;51.580;4.656;2023-07-30T05:50:37;101038.59;;;15.52;100.00
69306;BME280;56427;51.580;4.656;2023-07-30T05:53:02;101041.44;;;15.67;100.00
69306;BME280;56427;51.580;4.656;2023-07-30T05:55:27;101047.19;;;15.70;100.00
69306;BME280;56427;51.580;4.656;2023-07-30T05:57:53;101044.72;;;15.69;100.00
69306;BME280;56427;51.580;4.656;2023-07-30T06:00:26;101040.97;;;15.71;100.00
69306;BME280;56427;51.580;4.656;2023-07-30T06:02:52;101039.91;;;15.82;100.00
69306;BME280;56427;51.580;4.656;2023-07-30T06:05:17;101039.94;;;15.90;100.00
69306;BME280;56427;51.580;4.656;2023-07-30T06:07:44;101039.31;;;15.96;100.00
69306;BME280;56427;51.580;4.656;2023-07-30T06:10:11;101045.88;;;16.00;100.00
69306;BME280;56427;51.580;4.656;2023-07-30T06:12:36;101046.22;;;16.06;100.00
69306;BME280;56427;51.580;4.656;2023-07-30T06:15:05;101053.19;;;15.97;100.00
69306;BME280;56427;51.580;4.656;2023-07-30T06:17:33;101049.78;;;15.96;100.00
69306;BME280;56427;51.580;4.656;2023-07-30T06:20:02;101052.25;;;16.06;100.00
69306;BME280;56427;51.580;4.656;2023-07-30T06:22:28;101051.44;;;15.97;100.00
69306;BME280;56427;51.580;4.656;2023-07-30T06:24:54;101056.72;;;16.14;100.00
69306;BME280;56427;51.580;4.656;2023-07-30T06:27:20;101057.06;;;16.19;100.00
69306;BME280;56427;51.580;4.656;2023-07-30T06:29:45;101047.56;;;16.26;100.00
69306;BME280;56427;51.580;4.656;2023-07-30T06:32:12;101045.97;;;16.25;100.00
69306;BME280;56427;51.580;4.656;2023-07-30T06:34:39;101048.84;;;16.06;100.00
69306;BME280;56427;51.580;4.656;2023-07-30T06:37:05;101041.06;;;16.30;100.00
69306;BME280;56427;51.580;4.656;2023-07-30T06:39:30;101049.84;;;16.13;100.00
69306;BME280;56427;51.580;4.656;2023-07-30T06:41:55;101045.25;;;16.15;100.00
69306;BME280;56427;51.580;4.656;2023-07-30T06:44:21;101042.84;;;16.38;100.00
69306;BME280;56427;51.580;4.656;2023-07-30T06:46:49;101062.00;;;16.30;100.00
69306;BME280;56427;51.580;4.656;2023-07-30T06:49:15;101061.84;;;16.32;100.00
69306;BME280;56427;51.580;4.656;2023-07-30T06:51:41;101066.06;;;16.25;100.00
69306;BME280;56427;51.580;4.656;2023-07-30T06:54:07;101073.44;;;16.29;100.00
69306;BME280;56427;51.580;4.656;2023-07-30T06:56:32;101067.41;;;16.29;100.00
69306;BME280;56427;51.580;4.656;2023-07-30T06:58:59;101054.16;;;16.30;100.00
69306;BME280;56427;51.580;4.656;2023-07-30T07:01:25;101063.47;;;16.33;100.00
69306;BME280;56427;51.580;4.656;2023-07-30T07:03:50;101062.69;;;16.49;100.00
69306;BME280;56427;51.580;4.656;2023-07-30T07:06:18;101054.81;;;16.41;100.00
69306;BME280;56427;51.580;4.656;2023-07-30T07:08:44;101057.41;;;16.24;100.00
69306;BME280;56427;51.580;4.656;2023-07-30T07:11:09;101044.19;;;16.42;100.00
69306;BME280;56427;51.580;4.656;2023-07-30T07:13:35;101054.84;;;16.49;100.00
69306;BME280;56427;51.580;4.656;2023-07-30T07:16:01;101053.34;;;16.54;100.00
69306;BME280;56427;51.580;4.656;2023-07-30T07:18:27;101054.59;;;17.09;100.00
69306;BME280;56427;51.580;4.656;2023-07-30T07:20:52;101062.44;;;17.09;100.00
69306;BME280;56427;51.580;4.656;2023-07-30T07:23:18;101060.28;;;17.29;100.00
69306;BME280;56427;51.580;4.656;2023-07-30T07:25:45;101058.84;;;17.27;100.00
69306;BME280;56427;51.580;4.656;2023-07-30T07:28:15;101052.53;;;17.53;100.00
69306;BME280;56427;51.580;4.656;2023-07-30T07:30:42;101071.34;;;17.64;100.00
69306;BME280;56427;51.580;4.656;2023-07-30T07:33:07;101082.56;;;17.50;100.00
69306;BME280;56427;51.580;4.656;2023-07-30T07:35:36;101076.16;;;17.44;100.00
69306;BME280;56427;51.580;4.656;2023-07-30T07:38:02;101081.59;;;17.18;100.00
69306;BME280;56427;51.580;4.656;2023-07-30T07:40:27;101070.00;;;16.88;100.00
69306;BME280;56427;51.580;4.656;2023-07-30T07:42:54;101069.78;;;16.65;100.00
69306;BME280;56427;51.580;4.656;2023-07-30T07:45:20;101080.75;;;16.68;100.00
69306;BME280;56427;51.580;4.656;2023-07-30T07:47:46;101088.34;;;16.96;100.00
69306;BME280;56427;51.580;4.656;2023-07-30T07:50:11;101090.59;;;16.83;100.00
69306;BME280;56427;51.580;4.656;2023-07-30T07:52:37;101094.53;;;17.36;100.00
69306;BME280;56427;51.580;4.656;2023-07-30T07:55:04;101096.50;;;17.51;100.00
69306;BME280;56427;51.580;4.656;2023-07-30T07:57:30;101086.03;;;17.18;100.00
69306;BME280;56427;51.580;4.656;2023-07-30T07:59:57;101082.59;;;17.25;100.00
69306;BME280;56427;51.580;4.656;2023-07-30T08:02:23;101085.38;;;17.32;100.00
69306;BME280;56427;51.580;4.656;2023-07-30T08:04:49;101096.81;;;17.56;100.00
69306;BME280;56427;51.580;4.656;2023-07-30T08:07:15;101086.16;;;17.57;100.00
69306;BME280;56427;51.580;4.656;2023-07-30T08:09:40;101085.94;;;17.75;100.00
69306;BME280;56427;51.580;4.656;2023-07-30T08:12:06;101086.84;;;18.07;100.00
69306;BME280;56427;51.580;4.656;2023-07-30T08:14:33;101076.59;;;17.73;100.00
69306;BME280;56427;51.580;4.656;2023-07-30T08:16:58;101083.34;;;17.67;100.00
69306;BME280;56427;51.580;4.656;2023-07-30T08:19:24;101088.53;;;17.92;100.00
69306;BME280;56427;51.580;4.656;2023-07-30T08:21:51;101083.16;;;17.77;100.00
69306;BME280;56427;51.580;4.656;2023-07-30T08:24:16;101089.06;;;18.50;100.00
69306;BME280;56427;51.580;4.656;2023-07-30T08:26:42;101074.25;;;18.80;100.00
69306;BME280;56427;51.580;4.656;2023-07-30T08:29:07;101085.91;;;18.86;100.00
69306;BME280;56427;51.580;4.656;2023-07-30T08:31:35;101088.16;;;18.43;100.00
69306;BME280;56427;51.580;4.656;2023-07-30T08:34:01;101072.09;;;18.61;100.00
69306;BME280;56427;51.580;4.656;2023-07-30T08:36:27;101067.69;;;18.84;100.00
69306;BME280;56427;51.580;4.656;2023-07-30T08:38:52;101067.38;;;18.56;100.00
69306;BME280;56427;51.580;4.656;2023-07-30T08:41:18;101058.50;;;18.57;100.00
69306;BME280;56427;51.580;4.656;2023-07-30T08:43:44;101065.19;;;19.06;100.00
69306;BME280;56427;51.580;4.656;2023-07-30T08:46:16;101057.38;;;18.74;100.00
69306;BME280;56427;51.580;4.656;2023-07-30T08:48:41;101065.47;;;18.42;100.00
69306;BME280;56427;51.580;4.656;2023-07-30T08:51:07;101084.13;;;18.24;100.00
69306;BME280;56427;51.580;4.656;2023-07-30T08:53:32;101081.97;;;17.88;100.00
69306;BME280;56427;51.580;4.656;2023-07-30T08:55:59;101091.03;;;17.69;100.00
69306;BME280;56427;51.580;4.656;2023-07-30T08:58:27;101102.41;;;17.44;100.00
69306;BME280;56427;51.580;4.656;2023-07-30T09:00:55;101096.84;;;17.06;100.00
69306;BME280;56427;51.580;4.656;2023-07-30T09:03:24;101109.41;;;16.70;100.00
69306;BME280;56427;51.580;4.656;2023-07-30T09:05:53;101124.03;;;15.87;100.00
69306;BME280;56427;51.580;4.656;2023-07-30T09:08:19;101130.50;;;16.09;100.00
69306;BME280;56427;51.580;4.656;2023-07-30T09:10:45;101130.34;;;16.11;100.00
69306;BME280;56427;51.580;4.656;2023-07-30T09:13:11;101144.78;;;16.23;100.00
69306;BME280;56427;51.580;4.656;2023-07-30T09:15:37;101135.56;;;16.11;100.00
69306;BME280;56427;51.580;4.656;2023-07-30T09:18:04;101146.97;;;16.01;100.00
69306;BME280;56427;51.580;4.656;2023-07-30T09:20:39;101138.38;;;15.83;100.00
69306;BME280;56427;51.580;4.656;2023-07-30T09:23:05;101143.03;;;15.97;100.00
69306;BME280;56427;51.580;4.656;2023-07-30T09:25:32;101138.63;;;15.98;100.00
69306;BME280;56427;51.580;4.656;2023-07-30T09:27:57;101135.84;;;15.99;100.00
69306;BME280;56427;51.580;4.656;2023-07-30T09:30:25;101137.16;;;15.95;100.00
69306;BME280;56427;51.580;4.656;2023-07-30T09:32:54;101139.44;;;15.98;100.00
69306;BME280;56427;51.580;4.656;2023-07-30T09:35:19;101151.91;;;16.05;100.00
69306;BME280;56427;51.580;4.656;2023-07-30T09:37:45;101148.47;;;16.04;100.00
69306;BME280;56427;51.580;4.656;2023-07-30T09:40:12;101151.13;;;16.12;100.00
69306;BME280;56427;51.580;4.656;2023-07-30T09:42:42;101156.25;;;16.22;100.00
69306;BME280;56427;51.580;4.656;2023-07-30T09:45:22;101146.22;;;16.09;100.00
69306;BME280;56427;51.580;4.656;2023-07-30T09:47:51;101157.06;;;16.23;100.00
69306;BME280;56427;51.580;4.656;2023-07-30T09:50:17;101156.94;;;16.32;100.00
69306;BME280;56427;51.580;4.656;2023-07-30T09:52:43;101160.72;;;16.38;100.00
69306;BME280;56427;51.580;4.656;2023-07-30T09:55:10;101153.06;;;16.45;100.00
69306;BME280;56427;51.580;4.656;2023-07-30T09:57:37;101155.75;;;16.61;100.00
69306;BME280;56427;51.580;4.656;2023-07-30T10:00:06;101158.97;;;17.63;100.00
69306;BME280;56427;51.580;4.656;2023-07-30T10:02:40;101157.16;;;18.68;100.00
69306;BME280;56427;51.580;4.656;2023-07-30T10:05:20;101151.84;;;19.45;100.00
69306;BME280;56427;51.580;4.656;2023-07-30T10:07:59;101143.28;;;19.96;100.00
69306;BME280;56427;51.580;4.656;2023-07-30T10:10:27;101143.53;;;20.46;100.00
69306;BME280;56427;51.580;4.656;2023-07-30T10:12:56;101144.84;;;20.57;100.00
69306;BME280;56427;51.580;4.656;2023-07-30T10:15:24;101134.31;;;19.91;100.00
69306;BME280;56427;51.580;4.656;2023-07-30T10:17:51;101152.63;;;19.69;100.00
69306;BME280;56427;51.580;4.656;2023-07-30T10:20:27;101159.66;;;19.54;100.00
69306;BME280;56427;51.580;4.656;2023-07-30T10:22:55;101143.38;;;19.88;100.00
69306;BME280;56427;51.580;4.656;2023-07-30T10:25:45;101149.28;;;20.20;100.00
69306;BME280;56427;51.580;4.656;2023-07-30T10:28:26;101142.25;;;20.42;100.00
69306;BME280;56427;51.580;4.656;2023-07-30T10:31:00;101150.34;;;20.40;100.00
69306;BME280;56427;51.580;4.656;2023-07-30T10:33:51;101142.31;;;20.85;100.00
69306;BME280;56427;51.580;4.656;2023-07-30T10:36:31;101146.91;;;20.25;100.00
69306;BME280;56427;51.580;4.656;2023-07-30T10:39:18;101149.16;;;20.43;100.00
69306;BME280;56427;51.580;4.656;2023-07-30T10:41:46;101147.53;;;20.42;100.00
69306;BME280;56427;51.580;4.656;2023-07-30T10:46:46;101165.50;;;20.53;100.00
69306;BME280;56427;51.580;4.656;2023-07-30T10:49:12;101157.22;;;20.56;100.00
69306;BME280;56427;51.580;4.656;2023-07-30T10:51:38;101149.13;;;20.73;100.00
69306;BME280;56427;51.580;4.656;2023-07-30T10:54:07;101151.53;;;20.38;100.00
69306;BME280;56427;51.580;4.656;2023-07-30T10:56:35;101152.69;;;20.50;100.00
69306;BME280;56427;51.580;4.656;2023-07-30T10:59:04;101155.81;;;20.60;100.00
69306;BME280;56427;51.580;4.656;2023-07-30T11:01:31;101161.31;;;21.45;100.00
69306;BME280;56427;51.580;4.656;2023-07-30T11:03:57;101149.06;;;21.38;100.00
69306;BME280;56427;51.580;4.656;2023-07-30T11:06:23;101152.53;;;21.17;100.00
69306;BME280;56427;51.580;4.656;2023-07-30T11:08:49;101145.94;;;21.84;100.00
69306;BME280;56427;51.580;4.656;2023-07-30T11:11:15;101150.06;;;21.93;100.00
69306;BME280;56427;51.580;4.656;2023-07-30T11:13:45;101160.03;;;22.33;100.00
69306;BME280;56427;51.580;4.656;2023-07-30T11:16:12;101162.34;;;22.08;100.00
69306;BME280;56427;51.580;4.656;2023-07-30T11:18:39;101152.75;;;21.65;100.00
69306;BME280;56427;51.580;4.656;2023-07-30T11:21:06;101154.25;;;21.24;100.00
69306;BME280;56427;51.580;4.656;2023-07-30T11:23:35;101147.47;;;20.72;100.00
69306;BME280;56427;51.580;4.656;2023-07-30T11:26:02;101168.69;;;21.07;100.00
69306;BME280;56427;51.580;4.656;2023-07-30T11:28:30;101169.25;;;21.45;100.00
69306;BME280;56427;51.580;4.656;2023-07-30T11:31:02;101166.06;;;21.07;100.00
69306;BME280;56427;51.580;4.656;2023-07-30T11:33:28;101175.59;;;20.50;100.00
69306;BME280;56427;51.580;4.656;2023-07-30T11:35:57;101168.88;;;20.47;100.00
69306;BME280;56427;51.580;4.656;2023-07-30T11:38:25;101177.81;;;20.01;100.00
69306;BME280;56427;51.580;4.656;2023-07-30T11:40:52;101186.91;;;19.99;100.00
69306;BME280;56427;51.580;4.656;2023-07-30T11:43:18;101186.25;;;20.41;100.00
69306;BME280;56427;51.580;4.656;2023-07-30T11:45:46;101186.06;;;20.94;100.00
69306;BME280;56427;51.580;4.656;2023-07-30T11:48:11;101173.22;;;21.13;100.00
69306;BME280;56427;51.580;4.656;2023-07-30T11:50:52;101193.03;;;21.02;100.00
69306;BME280;56427;51.580;4.656;2023-07-30T11:53:18;101197.09;;;21.69;100.00
69306;BME280;56427;51.580;4.656;2023-07-30T11:55:45;101188.91;;;21.64;100.00
69306;BME280;56427;51.580;4.656;2023-07-30T11:58:13;101183.06;;;22.04;100.00
69306;BME280;56427;51.580;4.656;2023-07-30T12:00:43;101189.66;;;22.21;100.00
69306;BME280;56427;51.580;4.656;2023-07-30T12:03:11;101188.97;;;22.41;100.00
69306;BME280;56427;51.580;4.656;2023-07-30T12:05:38;101193.63;;;23.07;100.00
69306;BME280;56427;51.580;4.656;2023-07-30T12:08:13;101184.94;;;22.17;99.13
69306;BME280;56427;51.580;4.656;2023-07-30T12:10:46;101201.06;;;22.70;100.00
69306;BME280;56427;51.580;4.656;2023-07-30T12:13:20;101192.59;;;21.98;100.00
69306;BME280;56427;51.580;4.656;2023-07-30T12:15:52;101193.72;;;22.66;100.00
69306;BME280;56427;51.580;4.656;2023-07-30T12:18:20;101189.38;;;22.03;95.06
69306;BME280;56427;51.580;4.656;2023-07-30T12:20:47;101180.31;;;21.56;97.78
69306;BME280;56427;51.580;4.656;2023-07-30T12:23:13;101180.19;;;21.42;97.79
69306;BME280;56427;51.580;4.656;2023-07-30T12:25:39;101189.94;;;21.98;100.00
69306;BME280;56427;51.580;4.656;2023-07-30T12:28:05;101188.06;;;22.27;96.99
69306;BME280;56427;51.580;4.656;2023-07-30T12:30:31;101190.38;;;22.02;100.00
69306;BME280;56427;51.580;4.656;2023-07-30T12:32:56;101191.63;;;21.49;100.00
69306;BME280;56427;51.580;4.656;2023-07-30T12:35:22;101196.28;;;22.04;97.84
69306;BME280;56427;51.580;4.656;2023-07-30T12:37:48;101191.25;;;22.57;95.82
69306;BME280;56427;51.580;4.656;2023-07-30T12:40:13;101197.84;;;22.82;94.39
69306;BME280;56427;51.580;4.656;2023-07-30T12:42:39;101187.34;;;23.08;93.65
69306;BME280;56427;51.580;4.656;2023-07-30T12:45:05;101195.50;;;22.10;90.08